Time;durP1;ratioP1;P1;durP2;ratioP2;P2;SDS_P1;SDS_P2;PMS_P1;PMS_P2;Temp;Humidity;BMP_temperature;BMP_pressure;BME280_temperature;BME280_humidity;BME280_pressure;Samples;Min_cycle;Max_cycle;Signal;HPM_P1;HPM_P2
2022/06/22 00:02:21;;;;;;;4.50;3.13;;;;;;;21.69;46.31;97796.00;5074312;28;20127;-67
2022/06/22 00:04:52;;;;;;;7.25;3.95;;;;;;;21.65;46.45;97792.13;5073754;28;20031;-70
2022/06/22 00:07:26;;;;;;;5.57;3.33;;;;;;;21.64;46.39;97794.03;5075121;28;20093;-69
2022/06/22 00:09:58;;;;;;;6.60;4.32;;;;;;;21.66;46.20;97787.59;5075544;28;20111;-68
2022/06/22 00:12:30;;;;;;;5.57;3.25;;;;;;;21.63;46.45;97800.44;5075609;28;20510;-68
2022/06/22 00:14:58;;;;;;;6.78;3.83;;;;;;;21.65;46.58;97792.13;5074631;28;20071;-69
2022/06/22 00:17:38;;;;;;;5.68;3.63;;;;;;;21.67;46.50;97800.78;5073932;28;20040;-67
2022/06/22 00:20:25;;;;;;;5.85;3.50;;;;;;;21.72;46.28;97806.31;5074796;28;20059;-68
2022/06/22 00:22:58;;;;;;;4.53;3.25;;;;;;;21.70;46.39;97803.03;5074201;28;20521;-66
2022/06/22 00:25:23;;;;;;;6.93;3.47;;;;;;;21.72;46.38;97808.16;5075601;28;20036;-67
2022/06/22 00:27:49;;;;;;;5.30;3.20;;;;;;;21.73;46.21;97801.72;5074698;28;20051;-69
2022/06/22 00:30:30;;;;;;;7.28;3.70;;;;;;;21.74;46.36;97806.06;5075052;28;20036;-67
2022/06/22 00:33:11;;;;;;;5.15;3.38;;;;;;;21.69;46.42;97804.06;5075215;28;20033;-67
2022/06/22 00:35:55;;;;;;;5.18;3.08;;;;;;;21.64;46.62;97810.16;5074125;28;20056;-67
2022/06/22 00:38:29;;;;;;;7.10;3.10;;;;;;;21.59;46.90;97812.69;5072482;28;20518;-68
2022/06/22 00:41:03;;;;;;;5.72;3.15;;;;;;;21.57;46.89;97812.13;5074299;28;20034;-66
2022/06/22 00:43:35;;;;;;;5.07;3.95;;;;;;;21.55;46.68;97808.84;5062971;28;20037;-63
2022/06/22 00:46:05;;;;;;;8.50;3.50;;;;;;;21.54;46.70;97809.91;5068426;28;20499;-70
2022/06/22 00:48:35;;;;;;;9.80;3.47;;;;;;;21.54;46.81;97793.78;5076760;28;20032;-67
2022/06/22 00:51:07;;;;;;;8.10;3.00;;;;;;;21.59;46.64;97810.00;5074248;28;20040;-68
2022/06/22 00:53:34;;;;;;;4.55;3.40;;;;;;;21.65;46.75;97805.59;5091457;28;20395;-67
2022/06/22 00:56:17;;;;;;;12.35;3.95;;;;;;;21.70;46.51;97810.25;5092841;28;20069;-68
2022/06/22 00:58:47;;;;;;;10.98;3.92;;;;;;;21.66;46.63;97807.22;5093238;28;20151;-65
2022/06/22 01:01:15;;;;;;;7.13;3.38;;;;;;;21.60;46.74;97814.38;5093507;28;20031;-69
2022/06/22 01:03:56;;;;;;;6.18;3.58;;;;;;;21.52;47.01;97817.41;5092043;28;20024;-67
2022/06/22 01:06:39;;;;;;;6.93;3.58;;;;;;;21.49;46.93;97817.88;5092515;28;20020;-69
2022/06/22 01:09:27;;;;;;;10.98;4.00;;;;;;;21.46;47.02;97818.31;5093007;28;20062;-67
2022/06/22 01:12:17;;;;;;;5.45;3.42;;;;;;;21.42;47.20;97819.84;5092733;28;20024;-66
2022/06/22 01:14:51;;;;;;;8.75;4.13;;;;;;;21.44;47.01;97823.94;5089423;28;20035;-67
2022/06/22 01:17:27;;;;;;;7.32;3.85;;;;;;;21.49;47.20;97834.00;5092603;28;20147;-67
2022/06/22 01:20:12;;;;;;;8.00;3.72;;;;;;;21.45;47.07;97827.44;5093309;28;20028;-67
2022/06/22 01:22:52;;;;;;;7.13;3.22;;;;;;;21.39;47.48;97833.78;5071638;28;20044;-66
2022/06/22 01:25:45;;;;;;;5.47;3.10;;;;;;;21.36;47.22;97832.34;5092606;28;20032;-67
2022/06/22 01:28:12;;;;;;;5.85;3.08;;;;;;;21.32;47.39;97834.69;5077468;28;20035;-67
2022/06/22 01:30:44;;;;;;;5.57;3.15;;;;;;;21.29;47.48;97831.66;5073746;28;20036;-68
2022/06/22 01:33:33;;;;;;;4.88;3.05;;;;;;;21.27;47.60;97834.56;5073289;28;20119;-65
2022/06/22 01:36:05;;;;;;;4.63;3.17;;;;;;;21.25;47.45;97830.47;5074399;28;20056;-65
2022/06/22 01:38:35;;;;;;;6.63;3.08;;;;;;;21.24;47.52;97835.06;5092446;28;20032;-69
2022/06/22 01:41:23;;;;;;;4.82;3.35;;;;;;;21.21;47.72;97830.13;5089078;28;20039;-66
2022/06/22 01:43:55;;;;;;;5.07;2.75;;;;;;;21.17;47.69;97839.72;5090444;28;20031;-65
2022/06/22 01:46:50;;;;;;;5.53;3.00;;;;;;;21.16;47.72;97852.34;5091709;28;20036;-68
2022/06/22 01:49:33;;;;;;;5.05;3.40;;;;;;;21.13;47.74;97849.28;5000184;28;20473;-68
2022/06/22 01:52:07;;;;;;;4.28;2.88;;;;;;;21.13;47.89;97852.81;5091379;28;20035;-66
2022/06/22 01:54:38;;;;;;;5.90;2.95;;;;;;;21.16;47.63;97857.72;5091896;28;20038;-68
2022/06/22 01:57:09;;;;;;;6.65;2.92;;;;;;;21.16;47.84;97848.81;5093633;28;20491;-69
2022/06/22 01:59:49;;;;;;;4.93;2.95;;;;;;;21.15;47.91;97852.56;5093878;28;20036;-68
2022/06/22 02:02:22;;;;;;;8.05;2.95;;;;;;;21.13;48.03;97850.13;5093645;28;20089;-68
2022/06/22 02:04:53;;;;;;;5.93;2.88;;;;;;;21.16;47.98;97852.34;5093979;28;20032;-68
2022/06/22 02:10:24;;;;;;;7.00;2.90;;;;;;;21.16;47.79;97844.28;5094515;28;20043;-67
2022/06/22 02:13:14;;;;;;;4.38;2.70;;;;;;;21.14;47.95;97843.69;5093846;28;20036;-68
2022/06/22 02:15:40;;;;;;;3.42;2.42;;;;;;;21.09;47.94;97853.50;5093436;28;20123;-67
2022/06/22 02:18:14;;;;;;;3.45;2.38;;;;;;;21.07;48.07;97852.91;5093333;28;20474;-66
2022/06/22 02:20:40;;;;;;;4.50;2.55;;;;;;;21.06;48.07;97853.97;5093634;28;20078;-66
2022/06/22 02:23:20;;;;;;;3.72;2.90;;;;;;;21.06;47.99;97853.97;5093259;28;20032;-67
2022/06/22 02:26:17;;;;;;;6.28;2.45;;;;;;;21.08;47.96;97858.03;5086068;28;20054;-66
2022/06/22 02:28:44;;;;;;;2.45;1.98;;;;;;;21.04;48.03;97862.22;5053420;28;20464;-67
2022/06/22 02:31:10;;;;;;;6.35;2.60;;;;;;;21.04;47.92;97860.38;5072931;28;20036;-71
2022/06/22 02:33:39;;;;;;;4.90;2.22;;;;;;;21.04;48.10;97857.69;5073750;28;20106;-68
2022/06/22 02:36:06;;;;;;;3.40;2.13;;;;;;;21.05;48.13;97861.19;5064679;28;20044;-67
2022/06/22 02:38:32;;;;;;;3.70;2.20;;;;;;;21.03;47.98;97858.75;5073027;28;20098;-67
2022/06/22 02:46:35;;;;;;;3.65;2.50;;;;;;;21.09;47.80;97858.88;5053246;28;20443;-66
2022/06/22 02:49:31;;;;;;;4.05;2.25;;;;;;;21.08;47.93;97858.03;5053007;28;20434;-66
2022/06/22 02:51:59;;;;;;;3.88;2.58;;;;;;;21.02;48.09;97854.41;5049416;28;20488;-67
2022/06/22 02:54:34;;;;;;;3.15;2.15;;;;;;;21.09;47.84;97864.25;5052642;28;20044;-69
2022/06/22 02:57:20;;;;;;;3.67;2.33;;;;;;;21.05;48.07;97866.56;5052753;28;20036;-67
2022/06/22 02:59:48;;;;;;;4.88;2.65;;;;;;;21.00;48.03;97864.56;5052779;28;20028;-69
2022/06/22 03:02:15;;;;;;;6.32;2.50;;;;;;;20.96;48.22;97865.25;5052420;28;20037;-67
2022/06/22 03:04:42;;;;;;;3.85;2.50;;;;;;;20.96;48.11;97859.88;5052730;28;20033;-67
2022/06/22 03:07:08;;;;;;;5.22;2.45;;;;;;;20.95;48.23;97864.47;5052252;28;20031;-69
2022/06/22 03:09:37;;;;;;;5.95;2.40;;;;;;;20.95;48.13;97860.94;5052675;28;20111;-68
2022/06/22 03:12:03;;;;;;;3.42;2.50;;;;;;;20.93;47.88;97860.34;5051949;28;20119;-69
2022/06/22 03:14:56;;;;;;;3.90;2.45;;;;;;;20.95;47.96;97867.16;5052217;28;20033;-67
2022/06/22 03:17:38;;;;;;;10.43;2.58;;;;;;;20.96;47.92;97878.72;5067350;28;20498;-68
2022/06/22 03:20:09;;;;;;;3.90;2.22;;;;;;;20.90;47.88;97872.38;5072434;28;20063;-68
2022/06/22 03:22:45;;;;;;;4.93;2.65;;;;;;;20.92;47.95;97881.03;5072506;28;20031;-67
2022/06/22 03:25:17;;;;;;;2.92;2.00;;;;;;;20.94;48.06;97875.44;5072580;28;20178;-68
2022/06/22 03:27:47;;;;;;;4.38;2.47;;;;;;;20.92;47.80;97875.66;5072146;28;20542;-69
2022/06/22 03:30:23;;;;;;;4.00;2.58;;;;;;;20.94;47.76;97868.19;5072251;28;20074;-68
2022/06/22 03:32:56;;;;;;;5.20;2.25;;;;;;;21.00;47.73;97885.28;5072145;28;20032;-69
2022/06/22 03:35:39;;;;;;;2.25;1.92;;;;;;;20.96;47.82;97890.25;5072077;28;20088;-67
2022/06/22 03:38:10;;;;;;;3.05;1.85;;;;;;;20.92;47.71;97885.59;5072019;28;20506;-67
2022/06/22 03:40:42;;;;;;;3.55;2.35;;;;;;;20.91;47.81;97895.53;5054715;28;20524;-67
2022/06/22 03:43:31;;;;;;;4.95;2.75;;;;;;;20.88;47.76;97891.41;5052047;28;20044;-66
2022/06/22 03:46:23;;;;;;;3.00;2.28;;;;;;;20.86;47.97;97893.53;5046400;28;20040;-67
2022/06/22 03:49:07;;;;;;;4.60;2.40;;;;;;;20.89;47.65;97905.69;5052331;28;20045;-68
2022/06/22 03:51:53;;;;;;;3.42;2.75;;;;;;;20.93;47.56;97906.88;5052234;28;20111;-66
2022/06/22 03:54:40;;;;;;;3.55;2.10;;;;;;;20.95;47.36;97902.09;5051877;28;20540;-67
2022/06/22 03:57:12;;;;;;;7.15;2.45;;;;;;;20.96;47.55;97921.72;5052135;28;20427;-69
2022/06/22 03:59:41;;;;;;;3.10;2.00;;;;;;;20.87;47.92;97911.31;5052240;28;20051;-66
2022/06/22 04:02:06;;;;;;;3.72;2.30;;;;;;;20.85;47.79;97915.25;5052129;28;20117;-68
2022/06/22 04:04:32;;;;;;;4.85;2.80;;;;;;;20.81;47.84;97916.75;5059507;28;20394;-68
2022/06/22 04:06:58;;;;;;;5.82;3.10;;;;;;;20.76;47.73;97905.88;5071878;28;20511;-67
2022/06/22 04:09:27;;;;;;;5.10;2.45;;;;;;;20.79;47.65;97913.50;5071762;28;20033;-68
2022/06/22 04:12:06;;;;;;;2.75;2.00;;;;;;;20.82;47.71;97913.84;5072175;28;20082;-66
2022/06/22 04:15:07;;;;;;;3.17;2.42;;;;;;;20.81;47.76;97909.50;5072122;28;20406;-68
2022/06/22 04:17:48;;;;;;;4.45;2.15;;;;;;;20.80;47.72;97918.63;5071637;28;20040;-67
2022/06/22 04:20:24;;;;;;;4.97;2.67;;;;;;;20.82;47.92;97913.84;5071866;28;20052;-68
2022/06/22 04:22:54;;;;;;;3.85;2.55;;;;;;;20.84;47.75;97921.66;5071944;28;20403;-69
2022/06/22 04:25:33;;;;;;;4.22;2.60;;;;;;;20.87;47.90;97923.91;5073948;28;20480;-67
2022/06/22 04:28:02;;;;;;;2.88;2.40;;;;;;;20.84;47.92;97924.34;5075281;28;20039;-67
2022/06/22 04:30:37;;;;;;;4.50;1.88;;;;;;;20.86;47.99;97919.56;5075123;28;20032;-69
2022/06/22 04:33:25;;;;;;;3.38;2.30;;;;;;;20.87;47.87;97927.44;5075188;28;20047;-68
2022/06/22 04:35:56;;;;;;;3.30;2.67;;;;;;;20.87;47.74;97926.59;5074853;28;20048;-68
2022/06/22 04:38:29;;;;;;;6.47;2.45;;;;;;;20.89;47.76;97924.50;5075238;28;20139;-69
2022/06/22 04:41:01;;;;;;;3.70;2.47;;;;;;;20.92;47.60;97940.19;5054575;28;20028;-69
2022/06/22 04:43:28;;;;;;;3.95;2.58;;;;;;;20.96;47.54;97941.34;5055330;28;20090;-68
2022/06/22 04:45:54;;;;;;;2.45;2.20;;;;;;;20.94;47.66;97943.47;5054894;28;20058;-69
2022/06/22 04:48:36;;;;;;;2.70;2.10;;;;;;;20.97;47.45;97948.38;5054702;28;20116;-68
2022/06/22 04:51:04;;;;;;;2.90;1.98;;;;;;;20.98;47.32;97946.53;5054827;28;20503;-69
2022/06/22 04:53:34;;;;;;;3.75;2.30;;;;;;;21.00;47.39;97939.03;5055048;28;20115;-68
2022/06/22 04:56:05;;;;;;;3.42;2.28;;;;;;;21.00;47.24;97944.44;5054577;28;20036;-70
2022/06/22 04:58:43;;;;;;;3.90;1.95;;;;;;;21.00;47.47;97947.13;5055326;28;20041;-71
2022/06/22 05:01:19;;;;;;;2.88;2.28;;;;;;;21.01;47.38;97952.25;5054632;28;20127;-68
2022/06/22 05:03:45;;;;;;;5.82;2.30;;;;;;;21.00;47.30;97947.91;5054857;28;20491;-70
2022/06/22 05:06:18;;;;;;;3.40;2.25;;;;;;;21.00;47.47;97957.88;5054480;28;20043;-69
2022/06/22 05:09:15;;;;;;;4.30;2.72;;;;;;;20.96;47.44;97949.41;5054699;28;20099;-67
2022/06/22 05:11:47;;;;;;;2.70;2.05;;;;;;;20.99;47.47;97958.91;5054214;28;20052;-68
2022/06/22 05:14:27;;;;;;;2.90;2.25;;;;;;;21.01;47.39;97951.44;5054669;28;20044;-68
2022/06/22 05:16:59;;;;;;;5.75;2.30;;;;;;;21.00;47.36;97953.31;5054583;28;20110;-69
2022/06/22 05:19:33;;;;;;;4.25;2.42;;;;;;;21.07;47.36;97952.41;5055167;28;20037;-68
2022/06/22 05:21:58;;;;;;;3.90;2.85;;;;;;;21.11;47.12;97950.88;5054187;28;20068;-68
2022/06/22 05:24:34;;;;;;;2.70;2.28;;;;;;;21.16;47.12;97957.22;5054559;28;20118;-67
2022/06/22 05:27:03;;;;;;;4.53;2.80;;;;;;;21.18;47.00;97952.41;5060338;28;20174;-67
2022/06/22 05:29:38;;;;;;;9.18;2.70;;;;;;;21.33;46.84;97959.25;5073904;28;20085;-68
2022/06/22 05:32:10;;;;;;;4.78;2.53;;;;;;;21.32;46.66;97957.63;5073824;28;20048;-67
2022/06/22 05:34:39;;;;;;;4.68;2.88;;;;;;;21.25;46.85;97957.69;5073830;28;20071;-68
2022/06/22 05:37:12;;;;;;;4.20;2.67;;;;;;;21.22;46.68;97968.09;5072913;28;20036;-68
2022/06/22 05:39:39;;;;;;;3.33;2.10;;;;;;;21.22;46.79;97971.63;5069013;28;20044;-67
2022/06/22 05:42:06;;;;;;;4.88;2.10;;;;;;;21.22;46.61;97960.03;5054237;28;20047;-67
2022/06/22 05:44:33;;;;;;;3.92;2.53;;;;;;;21.21;46.91;97967.31;5054122;28;20074;-67
2022/06/22 05:47:00;;;;;;;4.40;2.80;;;;;;;21.19;46.73;97970.19;5053461;28;20033;-68
2022/06/22 05:49:44;;;;;;;6.25;2.28;;;;;;;21.16;46.76;97972.53;5054057;28;20072;-68
2022/06/22 05:52:15;;;;;;;5.20;2.22;;;;;;;21.16;46.82;97977.91;5053994;28;20040;-68
2022/06/22 05:54:47;;;;;;;3.28;2.40;;;;;;;21.16;46.62;97981.44;5053878;28;20037;-67
2022/06/22 05:57:15;;;;;;;2.45;2.25;;;;;;;21.16;46.64;97984.13;5053746;28;20120;-68
2022/06/22 05:59:50;;;;;;;4.70;2.40;;;;;;;21.16;46.69;97985.97;5054012;28;20458;-68
2022/06/22 06:02:18;;;;;;;6.38;2.25;;;;;;;21.15;46.68;97987.03;5053417;28;20480;-68
2022/06/22 06:05:03;;;;;;;8.48;2.10;;;;;;;21.09;46.73;97993.34;5053664;28;20044;-69
2022/06/22 06:07:40;;;;;;;5.60;2.10;;;;;;;21.09;46.82;97993.34;5053578;28;20064;-68
2022/06/22 06:10:13;;;;;;;5.40;2.65;;;;;;;21.08;46.76;97991.69;5053291;28;20118;-69
2022/06/22 06:12:45;;;;;;;4.55;2.15;;;;;;;21.09;46.62;98006.78;5053146;28;20040;-69
2022/06/22 06:15:14;;;;;;;4.15;2.47;;;;;;;21.07;46.77;98016.94;5052922;28;20037;-67
2022/06/22 06:17:44;;;;;;;4.50;2.67;;;;;;;21.07;46.79;98001.63;5053043;28;20033;-68
2022/06/22 06:20:38;;;;;;;7.07;2.47;;;;;;;21.07;46.96;98009.69;5053134;28;20039;-69
2022/06/22 06:24:08;;;;;;;4.45;2.50;;;;;;;21.12;46.79;98003.63;5051219;28;20802;-66
2022/06/22 06:30:03;;;;;;;3.28;2.13;;;;;;;21.24;46.60;98007.19;5073712;28;20039;-67
2022/06/22 06:32:49;;;;;;;3.08;2.08;;;;;;;21.26;46.36;98015.84;5073100;28;20036;-67
2022/06/22 06:35:45;;;;;;;4.65;2.30;;;;;;;21.31;46.46;98007.91;5054802;28;20076;-69
2022/06/22 06:38:50;;;;;;;6.50;2.38;;;;;;;21.36;46.31;98015.28;5073237;28;20028;-69
2022/06/22 06:41:15;;;;;;;6.75;2.60;;;;;;;21.44;45.99;98006.91;5035393;28;20135;-66
2022/06/22 06:43:54;;;;;;;3.38;2.30;;;;;;;21.55;46.07;98005.28;5053086;28;20111;-66
2022/06/22 06:46:28;;;;;;;5.80;2.47;;;;;;;21.68;45.81;98011.56;5052944;28;20116;-67
2022/06/22 06:49:10;;;;;;;2.80;2.28;;;;;;;21.71;45.78;98005.69;5052526;28;20044;-67
2022/06/22 06:51:37;;;;;;;;;;;;;;;21.68;45.75;98006.19;5053203;28;20090;-66
2022/06/22 06:54:08;;;;;;;5.40;2.05;;;;;;;21.74;45.70;98013.31;5052982;28;19913;-67
2022/06/22 06:56:40;;;;;;;4.43;2.58;;;;;;;21.74;45.63;98011.47;5052404;28;20514;-68
2022/06/22 06:59:13;;;;;;;6.35;2.35;;;;;;;21.73;45.62;98014.38;5052514;28;20129;-68
2022/06/22 07:01:44;;;;;;;6.90;2.70;;;;;;;21.77;45.50;98012.88;5052643;28;20071;-67
2022/06/22 07:04:23;;;;;;;4.28;2.25;;;;;;;21.83;45.31;98025.41;5052413;28;20507;-67
2022/06/22 07:06:48;;;;;;;2.97;1.95;;;;;;;21.89;45.14;98024.47;5052463;28;20036;-70
2022/06/22 07:09:23;;;;;;;3.67;2.60;;;;;;;21.92;45.12;98015.94;5071990;28;20376;-67
2022/06/22 07:11:52;;;;;;;3.00;1.95;;;;;;;21.95;45.14;98023.56;5072660;28;20038;-67
2022/06/22 07:14:28;;;;;;;3.10;2.10;;;;;;;22.00;45.18;98028.25;5072682;28;20036;-67
2022/06/22 07:16:58;;;;;;;4.03;2.75;;;;;;;21.97;45.12;98036.78;5072237;28;20059;-69
2022/06/22 07:19:50;;;;;;;5.03;2.83;;;;;;;21.86;45.16;98040.28;5072439;28;20032;-68
2022/06/22 07:22:33;;;;;;;3.08;2.20;;;;;;;21.77;45.23;98040.59;5072214;28;20036;-67
2022/06/22 07:25:06;;;;;;;7.50;2.42;;;;;;;21.76;45.34;98052.41;5072637;28;20068;-68
2022/06/22 07:27:39;;;;;;;3.10;2.22;;;;;;;21.77;45.23;98045.97;5072415;28;20431;-69
2022/06/22 07:30:20;;;;;;;6.60;2.50;;;;;;;21.78;45.07;98044.94;5072221;28;20044;-68
2022/06/22 07:33:09;;;;;;;4.80;2.00;;;;;;;21.85;45.19;98044.81;5072403;28;20047;-70
2022/06/22 07:35:43;;;;;;;5.38;2.03;;;;;;;21.87;45.12;98048.13;5071931;28;20504;-69
2022/06/22 07:38:31;;;;;;;6.55;2.10;;;;;;;21.99;45.10;98048.13;5072183;28;20062;-68
2022/06/22 07:43:42;;;;;;;4.78;2.20;;;;;;;22.10;44.73;98058.09;5052924;28;20407;-69
2022/06/22 07:46:15;;;;;;;3.22;2.17;;;;;;;22.10;45.06;98062.69;5052274;28;20032;-69
2022/06/22 07:48:45;;;;;;;4.72;1.80;;;;;;;22.07;44.78;98052.38;5052277;28;20555;-68
2022/06/22 07:51:23;;;;;;;7.22;2.30;;;;;;;22.08;44.68;98054.00;5052022;28;20036;-70
2022/06/22 07:53:55;;;;;;;6.53;2.20;;;;;;;22.13;44.56;98058.69;5052001;28;20116;-71
2022/06/22 07:56:31;;;;;;;4.22;1.95;;;;;;;22.20;44.28;98067.50;5052129;28;20400;-69
2022/06/22 07:59:03;;;;;;;4.78;2.25;;;;;;;22.24;44.09;98072.19;5052494;28;20520;-68
2022/06/22 08:01:37;;;;;;;2.45;1.65;;;;;;;22.27;44.06;98072.78;5056246;28;20412;-71
2022/06/22 08:04:24;;;;;;;3.50;1.92;;;;;;;22.34;43.92;98084.25;5056012;28;20037;-70
2022/06/22 08:07:05;;;;;;;2.75;1.98;;;;;;;22.40;44.03;98084.13;5055527;28;20029;-68
2022/06/22 08:09:49;;;;;;;2.53;1.83;;;;;;;22.44;43.95;98084.50;5055859;28;20032;-68
2022/06/22 08:12:24;;;;;;;2.28;1.58;;;;;;;22.41;43.76;98079.56;5055378;28;20144;-69
2022/06/22 08:14:55;;;;;;;4.22;1.77;;;;;;;22.40;43.78;98081.44;5055814;28;20459;-68
2022/06/22 08:17:28;;;;;;;4.97;2.13;;;;;;;22.44;43.93;98075.63;5055666;28;20449;-69
2022/06/22 08:19:54;;;;;;;2.97;1.83;;;;;;;22.49;43.72;98081.13;5055322;28;20123;-67
2022/06/22 08:22:20;;;;;;;2.38;1.90;;;;;;;22.49;43.83;98076.56;5055582;28;20119;-68
2022/06/22 08:24:49;;;;;;;2.53;2.17;;;;;;;22.49;43.74;98075.75;5055533;28;20037;-68
2022/06/22 08:27:18;;;;;;;2.08;1.60;;;;;;;22.47;43.95;98073.25;5063290;28;20389;-68
2022/06/22 08:29:46;;;;;;;2.45;1.70;;;;;;;22.46;43.79;98078.91;5075211;28;20040;-70
2022/06/22 08:32:19;;;;;;;7.00;2.28;;;;;;;22.46;43.61;98082.41;5075331;28;20119;-68
2022/06/22 08:35:01;;;;;;;3.78;2.00;;;;;;;22.45;43.58;98077.25;5075176;28;20123;-69
2022/06/22 08:38:08;;;;;;;5.88;2.20;;;;;;;22.47;43.58;98083.25;5074870;28;20056;-69
2022/06/22 08:40:52;;;;;;;2.80;1.52;;;;;;;22.51;43.25;98085.22;5062096;28;20115;-70
2022/06/22 08:43:29;;;;;;;4.07;1.90;;;;;;;22.52;42.99;98088.72;5054974;28;20037;-70
2022/06/22 08:46:09;;;;;;;7.32;1.80;;;;;;;22.51;42.87;98084.38;5055162;28;20028;-68
2022/06/22 08:49:08;;;;;;;2.40;1.77;;;;;;;22.52;42.83;98092.25;5055246;28;20037;-69
2022/06/22 08:51:55;;;;;;;5.22;1.98;;;;;;;22.55;42.73;98088.25;5055290;28;20507;-69
2022/06/22 08:54:45;;;;;;;1.73;1.42;;;;;;;22.55;42.03;98097.19;5063869;28;20495;-69
2022/06/22 08:57:26;;;;;;;3.95;1.67;;;;;;;22.54;42.23;98092.84;5065515;28;20132;-69
2022/06/22 08:59:51;;;;;;;4.35;1.52;;;;;;;22.53;42.03;98104.69;5055138;28;20029;-69
2022/06/22 09:02:20;;;;;;;2.63;1.60;;;;;;;22.55;41.93;98104.44;5059862;28;20556;-69
2022/06/22 09:05:07;;;;;;;5.85;1.80;;;;;;;22.54;41.77;98092.84;5075116;28;20044;-68
2022/06/22 09:07:42;;;;;;;3.70;1.52;;;;;;;22.56;41.55;98098.00;5068552;28;20036;-65
2022/06/22 09:10:38;;;;;;;3.28;1.45;;;;;;;22.61;41.17;98103.50;5054769;28;20040;-66
2022/06/22 09:13:15;;;;;;;2.22;1.50;;;;;;;22.58;40.95;98105.84;5054688;28;20033;-66
2022/06/22 09:16:18;;;;;;;5.63;1.75;;;;;;;22.50;41.13;98101.66;5054516;28;20064;-69
2022/06/22 09:19:14;;;;;;;6.97;1.65;;;;;;;22.47;41.08;98097.53;5062797;28;20032;-64
2022/06/22 09:21:42;;;;;;;3.83;1.70;;;;;;;22.44;41.18;98106.06;5064941;28;20079;-66
2022/06/22 09:24:32;;;;;;;2.95;1.40;;;;;;;22.37;41.31;98106.16;5063955;28;20160;-65
2022/06/22 09:27:16;;;;;;;4.80;1.70;;;;;;;22.34;41.35;98105.81;5061943;28;20028;-68
2022/06/22 09:30:11;;;;;;;2.80;1.80;;;;;;;22.38;41.66;98102.41;5064379;28;20041;-66
2022/06/22 09:32:46;;;;;;;2.05;1.40;;;;;;;22.43;41.69;98104.44;5071870;28;20119;-67
2022/06/22 09:35:36;;;;;;;3.10;1.85;;;;;;;22.46;41.75;98103.97;5052964;28;20052;-66
2022/06/22 09:38:46;;;;;;;3.38;1.75;;;;;;;22.43;41.96;98101.72;5074238;28;20111;-64
2022/06/22 09:41:32;;;;;;;2.13;1.55;;;;;;;22.40;42.04;98103.00;4966265;28;20093;-68
2022/06/22 09:44:38;;;;;;;2.13;1.80;;;;;;;22.39;41.99;98104.03;4964004;28;20077;-64
2022/06/22 09:47:28;;;;;;;3.03;1.65;;;;;;;22.34;42.19;98101.25;5013767;28;20033;-69
2022/06/22 09:50:05;;;;;;;1.85;1.65;;;;;;;22.29;42.43;98101.13;5056709;28;20124;-67
2022/06/22 09:53:07;;;;;;;5.50;1.50;;;;;;;22.32;42.27;98099.81;5053884;28;20123;-67
2022/06/22 09:58:44;;;;;;;3.70;1.80;;;;;;;22.22;42.75;98113.88;5052199;28;20095;-66
2022/06/22 10:01:30;;;;;;;3.97;1.90;;;;;;;22.29;42.71;98119.97;5061454;28;20044;-64
2022/06/22 10:04:17;;;;;;;5.35;1.65;;;;;;;22.33;42.57;98104.16;5053690;28;20040;-65
2022/06/22 10:06:51;;;;;;;2.13;1.23;;;;;;;22.39;42.51;98114.03;5058203;28;20483;-65
2022/06/22 10:09:41;;;;;;;4.82;1.58;;;;;;;22.38;42.49;98117.75;5067246;28;20040;-65
2022/06/22 10:12:24;;;;;;;6.28;1.70;;;;;;;22.35;42.72;98127.13;5059875;28;20035;-65
2022/06/22 10:15:04;;;;;;;2.55;1.50;;;;;;;22.34;42.62;98122.81;5069377;28;20047;-67
2022/06/22 10:17:47;;;;;;;2.88;1.38;;;;;;;22.37;42.70;98135.78;5064784;28;20463;-67
2022/06/22 10:20:31;;;;;;;3.28;1.52;;;;;;;22.40;42.15;98131.84;5065338;28;20036;-64
2022/06/22 10:23:05;;;;;;;3.85;1.45;;;;;;;22.33;42.67;98133.81;5069746;28;20060;-66
2022/06/22 10:25:46;;;;;;;2.75;1.58;;;;;;;22.33;42.72;98131.09;5052920;28;20041;-65
2022/06/22 10:28:23;;;;;;;1.85;1.48;;;;;;;22.38;42.61;98140.13;5067988;28;20036;-66
2022/06/22 10:30:48;;;;;;;10.23;1.92;;;;;;;22.34;42.69;98138.13;5066254;28;20041;-67
2022/06/22 10:33:27;;;;;;;4.28;1.35;;;;;;;22.40;42.49;98143.41;5065785;28;20159;-68
2022/06/22 10:36:29;;;;;;;8.05;1.27;;;;;;;22.48;42.39;98131.50;5065134;28;20071;-68
2022/06/22 10:38:55;;;;;;;3.33;1.30;;;;;;;22.47;42.16;98137.94;5064615;28;20098;-67
2022/06/22 10:47:04;;;;;;;3.53;1.33;;;;;;;22.57;42.07;98152.75;5052856;28;20079;-67
2022/06/22 10:50:00;;;;;;;2.42;1.02;;;;;;;22.53;42.24;98142.41;5068180;28;20063;-73
2022/06/22 10:52:40;;;;;;;1.90;1.40;;;;;;;22.52;42.40;98146.16;5065327;28;20118;-67
2022/06/22 10:55:27;;;;;;;3.37;1.00;;;;;;;22.59;42.24;98153.31;5072289;28;20119;-68
2022/06/22 10:58:14;;;;;;;2.05;1.17;;;;;;;22.65;42.26;98150.50;5071695;28;20301;-68
2022/06/22 11:01:07;;;;;;;1.33;1.00;;;;;;;22.60;42.36;98141.47;5072497;28;20495;-67
2022/06/22 11:04:09;;;;;;;3.15;1.58;;;;;;;22.54;42.29;98162.09;5072598;28;20502;-67
2022/06/22 11:06:43;;;;;;;2.97;1.35;;;;;;;22.48;42.62;98163.03;5072982;28;20059;-68
2022/06/22 11:09:40;;;;;;;1.90;1.40;;;;;;;22.46;42.68;98163.25;5072811;28;20040;-67
2022/06/22 11:12:48;;;;;;;3.15;1.60;;;;;;;22.36;42.85;98165.69;5072667;28;20039;-67
2022/06/22 11:15:35;;;;;;;2.30;1.60;;;;;;;22.22;43.15;98168.59;5072717;28;20483;-68
2022/06/22 11:18:34;;;;;;;2.70;1.38;;;;;;;22.21;43.22;98171.50;5072540;28;20059;-68
2022/06/22 11:21:12;;;;;;;5.30;1.25;;;;;;;22.20;43.13;98167.19;5072087;28;20033;-67
2022/06/22 11:23:52;;;;;;;3.53;1.33;;;;;;;22.23;43.09;98170.22;5072566;28;20083;-68
2022/06/22 11:33:10;;;;;;;4.53;1.35;;;;;;;22.22;42.90;98184.75;5072779;28;20102;-68
2022/06/22 11:35:53;;;;;;;6.70;1.55;;;;;;;22.19;42.85;98198.66;5075614;28;20478;-67
2022/06/22 11:39:04;;;;;;;2.00;1.40;;;;;;;22.17;42.72;98192.69;5076481;28;20039;-68
2022/06/22 11:42:08;;;;;;;1.35;1.08;;;;;;;22.22;42.84;98200.06;5073745;28;20039;-68
2022/06/22 11:48:35;;;;;;;1.35;0.88;;;;;;;22.13;42.84;98202.25;5076894;28;20123;-67
2022/06/22 11:51:28;;;;;;;2.67;1.40;;;;;;;22.13;43.05;98196.88;5075972;28;20117;-68
2022/06/22 11:54:06;;;;;;;2.20;1.33;;;;;;;22.08;42.86;98202.16;5076203;28;20033;-66
2022/06/22 11:56:43;;;;;;;5.22;1.00;;;;;;;22.08;42.99;98199.47;5076291;28;20032;-66
2022/06/22 11:59:24;;;;;;;3.40;1.33;;;;;;;22.12;43.01;98208.72;5075882;28;20403;-66
2022/06/22 12:01:58;;;;;;;1.98;1.13;;;;;;;22.14;42.95;98206.59;5076042;28;20033;-67
2022/06/22 12:04:44;;;;;;;1.73;1.25;;;;;;;22.15;42.62;98202.88;5075744;28;20059;-67
2022/06/22 12:07:47;;;;;;;2.25;1.30;;;;;;;22.16;42.60;98203.69;5075558;28;20028;-67
2022/06/22 12:10:25;;;;;;;2.03;1.10;;;;;;;22.20;42.67;98205.69;5075550;28;20036;-68
2022/06/22 12:13:10;;;;;;;2.67;1.00;;;;;;;22.23;42.29;98212.50;5075886;28;20059;-68
2022/06/22 12:16:00;;;;;;;2.47;1.20;;;;;;;22.22;42.06;98206.28;5024683;28;20509;-67
2022/06/22 12:18:52;;;;;;;2.65;1.10;;;;;;;22.25;41.93;98194.22;5075860;28;20029;-67
2022/06/22 12:21:20;;;;;;;1.38;0.88;;;;;;;22.32;42.03;98210.28;5075247;28;20078;-68
2022/06/22 12:24:21;;;;;;;2.33;0.98;;;;;;;22.32;41.68;98207.59;5075809;28;20036;-67
2022/06/22 12:26:47;;;;;;;;;;;;;;;22.23;42.10;98212.50;5075421;28;20024;-68
2022/06/22 12:29:23;;;;;;;2.70;1.45;;;;;;;22.30;41.76;98215.09;5075194;28;19916;-65
2022/06/22 12:31:55;;;;;;;2.08;1.13;;;;;;;22.32;41.74;98196.81;5075251;28;20403;-68
2022/06/22 12:34:33;;;;;;;2.33;1.25;;;;;;;22.31;41.87;98209.50;5075069;28;20518;-67
2022/06/22 12:37:06;;;;;;;2.55;1.05;;;;;;;22.36;41.77;98211.50;5074267;28;20040;-67
2022/06/22 12:39:42;;;;;;;3.42;1.25;;;;;;;22.32;41.67;98200.34;5070301;28;20028;-68
2022/06/22 12:42:28;;;;;;;2.20;0.98;;;;;;;22.32;41.49;98200.34;5053897;28;20044;-67
2022/06/22 12:44:57;;;;;;;2.53;0.90;;;;;;;22.40;41.33;98196.50;5053700;28;20132;-68
2022/06/22 12:47:58;;;;;;;7.25;1.13;;;;;;;22.42;40.98;98199.81;5053813;28;20137;-68
2022/06/22 12:50:42;;;;;;;2.08;1.08;;;;;;;22.39;41.00;98195.66;5054115;28;20029;-68
2022/06/22 12:53:38;;;;;;;1.55;1.10;;;;;;;22.41;41.10;98195.47;5053589;28;20025;-68
2022/06/22 12:56:13;;;;;;;2.60;1.00;;;;;;;22.45;40.89;98196.66;5045284;28;20064;-68
2022/06/22 12:58:41;;;;;;;2.53;1.00;;;;;;;22.44;40.44;98207.66;5053888;28;20066;-68
2022/06/22 13:01:07;;;;;;;1.88;0.80;;;;;;;22.39;39.86;98192.16;5054032;28;20032;-68